Time;durP1;ratioP1;P1;durP2;ratioP2;P2;SDS_P1;SDS_P2;PMS_P1;PMS_P2;Temp;Humidity;BMP_temperature;BMP_pressure;BME280_temperature;BME280_humidity;BME280_pressure;Samples;Min_cycle;Max_cycle;Signal;HPM_P1;HPM_P2
2023/04/17 00:00:33;;;;;;;6.53;4.18;;;;;;;19.75;34.95;102488.38;16118426;19;129430;-39
2023/04/17 00:05:55;;;;;;;5.13;4.07;;;;;;;19.71;34.67;102484.31;16123561;19;130219;-40
2023/04/17 00:11:17;;;;;;;6.18;4.28;;;;;;;19.68;34.64;102485.59;16120611;19;131243;-42
2023/04/17 00:16:39;;;;;;;7.10;4.78;;;;;;;19.66;34.64;102485.81;16117782;19;133419;-41
2023/04/17 00:22:01;;;;;;;6.53;4.30;;;;;;;19.63;34.62;102479.84;16117777;19;130165;-41
2023/04/17 00:27:23;;;;;;;7.55;4.90;;;;;;;19.60;34.78;102477.50;16123207;19;129522;-39
2023/04/17 00:32:45;;;;;;;7.03;4.47;;;;;;;19.57;34.93;102473.22;16118480;19;130767;-43
2023/04/17 00:38:08;;;;;;;6.95;5.18;;;;;;;19.56;34.90;102474.31;16120955;19;129695;-41
2023/04/17 00:43:30;;;;;;;7.32;5.03;;;;;;;19.54;34.90;102468.13;16121636;19;130575;-41
2023/04/17 00:48:51;;;;;;;7.53;5.50;;;;;;;19.51;35.07;102463.81;16119142;19;129519;-40
2023/04/17 00:54:14;;;;;;;8.77;5.22;;;;;;;19.49;34.66;102454.00;16119342;19;129373;-40
2023/04/17 00:59:37;;;;;;;8.68;5.57;;;;;;;19.47;34.80;102468.13;16120190;19;130675;-40
2023/04/17 01:04:59;;;;;;;7.60;5.45;;;;;;;19.46;35.07;102460.00;16113065;19;129640;-40
2023/04/17 01:10:22;;;;;;;10.18;4.97;;;;;;;19.43;34.71;102461.28;16120587;19;130198;-43
2023/04/17 01:15:45;;;;;;;9.27;5.72;;;;;;;19.42;34.69;102464.28;16116242;19;131304;-39
2023/04/17 01:21:07;;;;;;;9.63;6.28;;;;;;;19.41;34.87;102468.13;16111269;19;130546;-43
2023/04/17 01:26:31;;;;;;;8.63;5.78;;;;;;;19.39;34.69;102468.31;16118414;19;130383;-40
2023/04/17 01:31:53;;;;;;;7.80;5.88;;;;;;;19.36;35.06;102469.59;16117011;19;130384;-40
2023/04/17 01:37:15;;;;;;;9.57;6.57;;;;;;;19.35;34.89;102473.44;16116285;19;130388;-40
2023/04/17 01:42:37;;;;;;;11.48;7.35;;;;;;;19.32;34.76;102479.41;16116338;19;129833;-42
2023/04/17 01:48:00;;;;;;;8.20;6.13;;;;;;;19.30;34.86;102478.81;16115978;19;129460;-41
2023/04/17 01:53:21;;;;;;;8.73;6.10;;;;;;;19.28;35.07;102471.75;16115212;19;129481;-42
2023/04/17 01:58:43;;;;;;;6.75;5.55;;;;;;;19.27;34.67;102468.13;16117057;19;129424;-39
2023/04/17 02:04:05;;;;;;;8.38;6.13;;;;;;;19.27;34.61;102482.00;16112728;19;131350;-44
2023/04/17 02:09:27;;;;;;;9.15;5.97;;;;;;;19.24;34.92;102467.69;16109766;19;129153;-40
2023/04/17 02:14:49;;;;;;;9.90;6.13;;;;;;;19.22;34.75;102474.31;16112866;19;130892;-41
2023/04/17 02:20:11;;;;;;;6.82;5.43;;;;;;;19.20;35.07;102475.56;16109605;19;131370;-49
2023/04/17 02:25:33;;;;;;;7.55;6.10;;;;;;;19.19;34.92;102476.63;16110774;19;130155;-48
2023/04/17 02:30:55;;;;;;;8.02;5.72;;;;;;;19.17;34.87;102471.28;16106678;19;129388;-47
2023/04/17 02:36:18;;;;;;;8.90;6.22;;;;;;;19.16;34.98;102465.94;16108655;19;129450;-41
2023/04/17 02:41:39;;;;;;;6.32;5.15;;;;;;;19.14;35.04;102465.31;16108367;19;130078;-46
2023/04/17 02:47:01;;;;;;;8.88;6.45;;;;;;;19.12;34.68;102461.88;16108875;19;129288;-50
2023/04/17 02:52:23;;;;;;;9.32;6.47;;;;;;;19.09;34.81;102465.94;16107262;19;130176;-46
2023/04/17 02:57:45;;;;;;;9.35;6.20;;;;;;;19.08;34.91;102469.78;16109738;19;129092;-47
2023/04/17 03:03:08;;;;;;;9.25;6.28;;;;;;;19.06;34.96;102470.00;16108043;19;129739;-46
2023/04/17 03:08:34;;;;;;;8.68;6.53;;;;;;;19.06;34.62;102481.09;16110333;19;130513;-40
2023/04/17 03:13:56;;;;;;;10.63;7.53;;;;;;;19.04;34.66;102474.91;16112322;19;130282;-42
2023/04/17 03:19:18;;;;;;;13.40;7.10;;;;;;;19.03;35.11;102473.19;16124074;19;130711;-40
2023/04/17 03:24:40;;;;;;;10.82;6.93;;;;;;;19.03;34.80;102466.78;16124703;19;129745;-40
2023/04/17 03:30:02;;;;;;;12.38;6.82;;;;;;;19.02;35.16;102465.06;16124813;19;130646;-40
2023/04/17 03:35:24;;;;;;;9.05;6.32;;;;;;;19.01;35.00;102458.69;16122326;19;135923;-41
2023/04/17 03:40:46;;;;;;;11.45;6.40;;;;;;;19.00;35.10;102462.50;16119415;19;131419;-42
2023/04/17 03:46:08;;;;;;;8.27;6.30;;;;;;;19.00;34.96;102467.22;16120328;19;129490;-42
2023/04/17 03:51:30;;;;;;;7.93;6.22;;;;;;;18.99;34.82;102466.34;16121818;19;130104;-41
2023/04/17 03:56:52;;;;;;;11.07;5.95;;;;;;;18.95;34.89;102451.22;16122297;19;131133;-39
2023/04/17 04:02:14;;;;;;;10.75;6.68;;;;;;;18.96;35.10;102465.94;16126475;19;132079;-42
2023/04/17 04:07:36;;;;;;;7.28;5.78;;;;;;;18.93;34.89;102464.44;16123151;19;129906;-41
2023/04/17 04:12:58;;;;;;;9.80;6.55;;;;;;;18.92;35.17;102465.50;16121714;19;129714;-40
2023/04/17 04:18:20;;;;;;;8.63;6.50;;;;;;;18.90;35.03;102462.91;16117996;19;130622;-45
2023/04/17 04:23:44;;;;;;;9.88;6.22;;;;;;;18.89;34.84;102465.91;16119368;19;131393;-40
2023/04/17 04:29:08;;;;;;;8.10;5.95;;;;;;;18.88;34.73;102462.31;16115542;19;131309;-39
2023/04/17 04:34:31;;;;;;;8.67;6.03;;;;;;;18.86;34.88;102460.78;16116647;19;130636;-39
2023/04/17 04:40:00;;;;;;;8.35;6.10;;;;;;;18.84;35.00;102469.31;16118144;19;131714;-40
2023/04/17 04:45:22;;;;;;;7.47;5.85;;;;;;;18.83;35.13;102461.22;16118865;19;129845;-39
2023/04/17 04:50:44;;;;;;;7.93;5.72;;;;;;;18.81;34.70;102468.91;16121244;19;135177;-41
2023/04/17 04:56:06;;;;;;;6.53;5.45;;;;;;;18.80;35.05;102467.19;16119641;19;130212;-41
2023/04/17 05:01:28;;;;;;;7.00;5.25;;;;;;;18.79;34.71;102471.03;16117201;19;130808;-43
2023/04/17 05:06:50;;;;;;;7.18;5.30;;;;;;;18.81;35.00;102478.06;16116444;19;129958;-41
2023/04/17 05:12:12;;;;;;;5.80;4.45;;;;;;;18.90;34.97;102478.72;16115975;19;129364;-39
2023/04/17 05:17:35;;;;;;;6.15;4.68;;;;;;;19.04;34.54;102485.13;16114502;19;129881;-48
2023/04/17 05:22:57;;;;;;;7.30;4.38;;;;;;;19.16;34.43;102486.22;16111767;19;129545;-40
2023/04/17 05:28:19;;;;;;;16.73;4.75;;;;;;;19.24;34.74;102485.19;16116834;19;131183;-41
2023/04/17 05:33:41;;;;;;;19.92;5.55;;;;;;;19.29;34.82;102498.41;16115480;19;129517;-40
2023/04/17 05:39:03;;;;;;;21.13;5.43;;;;;;;19.32;34.84;102498.84;16111156;19;129896;-41
2023/04/17 05:44:25;;;;;;;11.40;5.05;;;;;;;19.32;34.83;102496.06;16112291;19;129584;-39
2023/04/17 05:49:50;;;;;;;8.90;4.28;;;;;;;19.30;34.51;102497.34;16117197;19;129426;-41
2023/04/17 05:55:11;;;;;;;15.23;4.53;;;;;;;19.26;34.50;102508.03;16113226;19;129810;-40
2023/04/17 06:00:33;;;;;;;10.27;4.82;;;;;;;19.22;34.91;102515.06;16114457;19;129770;-40
2023/04/17 06:05:55;;;;;;;10.13;5.57;;;;;;;19.19;34.93;102508.00;16109741;19;129946;-40
2023/04/17 06:11:17;;;;;;;10.80;5.25;;;;;;;19.16;34.51;102504.78;16112404;19;131117;-40
2023/04/17 06:16:39;;;;;;;10.10;5.80;;;;;;;19.13;34.96;102516.31;16112584;19;130243;-40
2023/04/17 06:22:02;;;;;;;11.10;5.10;;;;;;;19.11;34.94;102518.44;16115154;19;129723;-42
2023/04/17 06:27:24;;;;;;;7.80;5.22;;;;;;;19.07;34.93;102524.41;16115403;19;131519;-41
2023/04/17 06:32:45;;;;;;;9.68;5.53;;;;;;;19.04;34.94;102530.38;16112798;19;130819;-40
2023/04/17 06:38:07;;;;;;;9.32;4.55;;;;;;;19.01;34.78;102546.59;16114355;19;129512;-40
2023/04/17 06:43:29;;;;;;;7.47;4.13;;;;;;;19.05;35.36;102542.31;16113867;19;130384;-41
2023/04/17 06:48:51;;;;;;;9.93;4.72;;;;;;;19.12;35.05;102543.22;16118719;19;130923;-39
2023/04/17 06:54:13;;;;;;;9.85;4.53;;;;;;;19.21;35.17;102552.19;16129598;19;129016;-40
2023/04/17 06:59:35;;;;;;;11.70;5.22;;;;;;;19.30;34.92;102556.50;16129443;19;131093;-40
2023/04/17 07:04:57;;;;;;;10.23;5.03;;;;;;;19.38;34.97;102558.22;16128359;19;130049;-40
2023/04/17 07:10:19;;;;;;;8.98;4.97;;;;;;;19.45;35.10;102558.19;16128474;19;129437;-40
2023/04/17 07:15:40;;;;;;;10.10;4.03;;;;;;;19.48;35.00;102563.34;16127748;19;129905;-43
2023/04/17 07:21:02;;;;;;;6.53;4.43;;;;;;;19.51;35.04;102557.38;16124664;19;129559;-40
2023/04/17 07:26:24;;;;;;;9.23;4.35;;;;;;;19.52;34.91;102567.41;16130415;19;129965;-43
2023/04/17 07:31:46;;;;;;;8.93;4.93;;;;;;;19.53;35.27;102574.66;16126358;19;129293;-41
2023/04/17 07:37:08;;;;;;;10.95;4.78;;;;;;;19.54;35.19;102573.59;16125625;19;130215;-39
2023/04/17 07:42:30;;;;;;;8.27;5.13;;;;;;;19.54;35.16;102579.16;16128166;19;129760;-40
2023/04/17 07:47:53;;;;;;;7.65;4.93;;;;;;;19.53;35.14;102580.22;16121678;19;129413;-42
2023/04/17 07:53:16;;;;;;;7.03;5.13;;;;;;;19.53;35.14;102577.44;16127575;19;129610;-41
2023/04/17 07:58:38;;;;;;;6.57;4.82;;;;;;;19.53;34.73;102583.00;16123098;19;130115;-40
2023/04/17 08:04:00;;;;;;;8.27;4.70;;;;;;;19.51;34.78;102583.19;16124489;19;130015;-39
2023/04/17 08:09:23;;;;;;;9.57;5.43;;;;;;;19.51;35.02;102585.13;16124272;19;131108;-41
2023/04/17 08:14:44;;;;;;;8.30;5.45;;;;;;;19.51;35.14;102585.13;16122228;19;129774;-42
2023/04/17 08:20:07;;;;;;;7.28;5.40;;;;;;;19.51;34.84;102590.66;16123098;19;129786;-41
2023/04/17 08:25:30;;;;;;;7.88;5.47;;;;;;;19.51;35.17;102594.28;16123638;19;130787;-47
2023/04/17 08:30:52;;;;;;;7.50;5.93;;;;;;;19.51;34.86;102590.66;16122385;19;131414;-40
2023/04/17 08:36:14;;;;;;;8.25;5.30;;;;;;;19.51;35.05;102604.56;16122776;19;129632;-40
2023/04/17 08:41:46;;;;;;;6.65;5.32;;;;;;;19.52;34.84;102600.72;16120193;19;129532;-39
2023/04/17 08:47:08;;;;;;;6.82;4.75;;;;;;;19.51;35.04;102607.34;16123707;19;130011;-42
2023/04/17 08:52:30;;;;;;;7.50;5.32;;;;;;;19.51;34.49;102602.63;16120397;19;129206;-39
2023/04/17 08:58:00;;;;;;;6.20;5.13;;;;;;;19.53;34.76;102600.50;16117261;19;129638;-41
2023/04/17 09:03:22;;;;;;;6.65;4.78;;;;;;;19.55;34.75;102591.97;16120553;19;129436;-40
2023/04/17 09:09:03;;;;;;;8.43;5.88;;;;;;;19.56;34.68;102602.00;16120404;19;130802;-42
2023/04/17 09:14:29;;;;;;;6.65;4.82;;;;;;;19.58;34.72;102608.19;16122260;19;131517;-40
2023/04/17 09:20:02;;;;;;;10.15;4.80;;;;;;;19.58;34.69;102602.63;16120462;19;129697;-43
2023/04/17 09:25:26;;;;;;;12.38;7.25;;;;;;;19.59;34.66;102598.78;16114680;19;134388;-42
2023/04/17 09:30:48;;;;;;;15.02;6.82;;;;;;;19.66;34.44;102598.78;16118765;19;131052;-40
2023/04/17 09:36:20;;;;;;;14.57;7.63;;;;;;;19.74;34.50;102611.63;16118203;19;129478;-40
2023/04/17 09:41:42;;;;;;;14.82;7.95;;;;;;;19.79;34.44;102618.25;16117907;19;131511;-42
2023/04/17 09:47:06;;;;;;;11.63;7.38;;;;;;;19.84;34.47;102612.03;16118825;19;131486;-42
2023/04/17 09:52:29;;;;;;;16.75;8.10;;;;;;;19.87;34.10;102616.34;16112340;19;129788;-41
2023/04/17 09:57:55;;;;;;;12.65;7.57;;;;;;;19.85;34.38;102608.19;16114101;19;130058;-40
2023/04/17 10:03:18;;;;;;;13.18;8.05;;;;;;;19.85;34.40;102608.19;16117528;19;129547;-43
2023/04/17 10:08:40;;;;;;;11.93;8.63;;;;;;;19.83;34.22;102602.88;16113409;19;129496;-40
2023/04/17 10:14:18;;;;;;;15.75;8.00;;;;;;;19.87;33.98;102605.22;16115055;19;129497;-40
2023/04/17 10:19:40;;;;;;;11.30;7.90;;;;;;;19.87;34.16;102606.06;16114490;19;130313;-40
2023/04/17 10:25:14;;;;;;;10.85;7.72;;;;;;;19.85;33.82;102602.66;16113377;19;130230;-40
2023/04/17 10:30:55;;;;;;;11.48;7.78;;;;;;;19.81;33.81;102601.38;16113009;19;129706;-40
2023/04/17 10:36:39;;;;;;;10.70;7.85;;;;;;;19.79;34.27;102593.25;16114961;19;129446;-40
2023/04/17 10:42:05;;;;;;;11.40;7.70;;;;;;;19.73;33.92;102593.25;16111699;19;131206;-43
2023/04/17 10:47:32;;;;;;;10.27;7.78;;;;;;;19.73;34.11;102598.78;16110721;19;131898;-41
2023/04/17 10:52:54;;;;;;;10.45;7.80;;;;;;;19.74;33.86;102589.41;16109573;19;130967;-41
2023/04/17 10:58:16;;;;;;;12.00;7.70;;;;;;;19.73;34.06;102576.59;16109775;19;129517;-40
2023/04/17 11:03:39;;;;;;;10.07;7.38;;;;;;;19.72;34.06;102585.97;16109741;19;129605;-41
2023/04/17 11:09:05;;;;;;;9.07;6.97;;;;;;;19.69;34.32;102581.72;16108461;19;129259;-44
2023/04/17 11:14:27;;;;;;;;;;;;;;;19.67;33.76;102579.16;16112520;19;132230;-41
2023/04/17 11:19:48;;;;;;;8.60;7.15;;;;;;;19.66;34.23;102585.78;16110220;19;129901;-41
2023/04/17 11:25:30;;;;;;;7.60;6.30;;;;;;;19.63;34.01;102583.44;16113886;19;130593;-40
2023/04/17 11:30:52;;;;;;;9.57;7.93;;;;;;;19.57;33.71;102578.72;16109091;19;130121;-44
2023/04/17 11:36:15;;;;;;;8.98;7.30;;;;;;;19.55;34.09;102591.97;16117930;19;130828;-40
2023/04/17 11:41:38;;;;;;;9.38;7.53;;;;;;;19.53;33.94;102577.44;16126414;19;129903;-42
2023/04/17 11:47:01;;;;;;;9.63;7.50;;;;;;;19.51;33.73;102582.34;16127282;19;130008;-40
2023/04/17 11:52:23;;;;;;;8.93;6.65;;;;;;;19.49;33.66;102576.16;16124918;19;129576;-40
2023/04/17 11:57:44;;;;;;;7.28;6.57;;;;;;;19.49;33.84;102570.59;16123320;19;130586;-40
2023/04/17 12:03:33;;;;;;;9.00;6.65;;;;;;;19.55;33.97;102574.44;16124280;19;129107;-41
2023/04/17 12:08:55;;;;;;;9.40;6.10;;;;;;;19.55;33.79;102572.53;16124374;19;129703;-42
2023/04/17 12:14:17;;;;;;;7.40;5.63;;;;;;;19.63;33.84;102565.94;16126507;19;130065;-42
2023/04/17 12:19:39;;;;;;;8.70;6.53;;;;;;;19.82;33.38;102575.28;16125279;19;132689;-42
2023/04/17 12:25:01;;;;;;;6.22;5.32;;;;;;;20.00;32.92;102577.44;16122050;19;129915;-41
2023/04/17 12:30:23;;;;;;;8.40;5.63;;;;;;;20.13;32.94;102571.88;16123097;19;129441;-41
2023/04/17 12:35:45;;;;;;;6.35;4.80;;;;;;;20.23;32.60;102565.88;16118296;19;130681;-40
2023/04/17 12:41:06;;;;;;;5.55;4.80;;;;;;;20.35;32.98;102562.41;16120643;19;129620;-43
2023/04/17 12:46:31;;;;;;;6.00;4.75;;;;;;;20.42;32.38;102563.28;16122309;19;129596;-42
2023/04/17 12:51:53;;;;;;;6.67;4.90;;;;;;;20.47;32.37;102560.66;16120124;19;129519;-42
2023/04/17 12:57:16;;;;;;;5.88;4.30;;;;;;;20.50;32.32;102560.25;16121594;19;129648;-49
2023/04/17 13:02:37;;;;;;;4.85;4.28;;;;;;;20.48;32.49;102558.75;16122036;19;129662;-44
2023/04/17 13:08:00;;;;;;;8.23;4.97;;;;;;;20.40;32.47;102548.72;16120239;19;131135;-40
2023/04/17 13:13:22;;;;;;;6.50;5.10;;;;;;;20.34;32.76;102555.16;16121808;19;130394;-41
2023/04/17 13:18:44;;;;;;;7.18;5.38;;;;;;;20.24;32.75;102538.97;16121262;19;131116;-43
2023/04/17 13:24:06;;;;;;;5.63;4.95;;;;;;;20.17;32.57;102538.97;16120426;19;132692;-41
2023/04/17 13:29:29;;;;;;;10.75;5.00;;;;;;;20.11;33.18;102525.94;16121528;19;129978;-41
2023/04/17 13:34:50;;;;;;;12.07;5.60;;;;;;;20.05;32.81;102519.31;16117205;19;129663;-50
2023/04/17 13:40:13;;;;;;;13.25;6.88;;;;;;;20.02;33.23;102510.56;16115802;19;131160;-47
2023/04/17 13:45:37;;;;;;;13.93;7.13;;;;;;;19.95;33.29;102508.63;16118080;19;130907;-48
2023/04/17 13:50:59;;;;;;;12.32;7.80;;;;;;;19.91;33.16;102509.28;16119303;19;130644;-47
2023/04/17 13:56:22;;;;;;;10.63;7.32;;;;;;;19.84;33.22;102507.38;16118063;19;129840;-49
2023/04/17 14:01:44;;;;;;;9.18;6.97;;;;;;;19.82;33.08;102503.09;16115780;19;130222;-45
2023/04/17 14:07:06;;;;;;;7.47;6.10;;;;;;;19.81;33.17;102505.03;16117547;19;131248;-50
2023/04/17 14:12:27;;;;;;;7.85;6.07;;;;;;;19.80;33.46;102494.97;16115721;19;129587;-49
2023/04/17 14:17:49;;;;;;;9.80;6.75;;;;;;;19.78;33.46;102496.28;16115902;19;130761;-45
2023/04/17 14:23:11;;;;;;;8.65;6.72;;;;;;;19.74;33.46;102495.00;16114255;19;129913;-50
2023/04/17 14:28:33;;;;;;;7.40;5.93;;;;;;;19.74;33.24;102500.53;16114818;19;129230;-41
2023/04/17 14:33:55;;;;;;;9.30;6.80;;;;;;;19.77;33.26;102489.00;16111247;19;129685;-44
2023/04/17 14:39:18;;;;;;;8.32;5.63;;;;;;;19.83;32.96;102485.34;16114621;19;130680;-41
2023/04/17 14:44:42;;;;;;;9.00;5.80;;;;;;;19.90;33.07;102477.88;16112705;19;129591;-51
2023/04/17 14:50:04;;;;;;;8.57;5.78;;;;;;;19.99;32.87;102486.84;16115841;19;131117;-50
2023/04/17 14:55:27;;;;;;;8.75;5.75;;;;;;;20.05;32.43;102477.66;16100289;19;130633;-48
2023/04/17 15:00:49;;;;;;;9.05;5.82;;;;;;;20.08;32.43;102480.00;16115252;19;130640;-45
2023/04/17 15:06:11;;;;;;;8.90;5.25;;;;;;;20.08;32.42;102474.44;16106058;19;129596;-41
2023/04/17 15:11:33;;;;;;;9.40;5.88;;;;;;;20.10;32.23;102466.75;16119274;19;129613;-42
2023/04/17 15:16:57;;;;;;;6.93;5.30;;;;;;;20.09;32.55;102455.84;16126705;19;129615;-40
2023/04/17 15:22:19;;;;;;;11.85;5.95;;;;;;;20.07;32.28;102458.84;16124955;19;130353;-43
2023/04/17 15:27:41;;;;;;;10.20;6.80;;;;;;;20.03;32.08;102452.00;16127383;19;130620;-44
2023/04/17 15:33:03;;;;;;;7.60;6.00;;;;;;;19.97;31.82;102450.94;16127377;19;129528;-41
2023/04/17 15:38:27;;;;;;;10.38;5.88;;;;;;;19.96;31.91;102443.66;16122331;19;130245;-42
2023/04/17 15:43:49;;;;;;;11.07;6.32;;;;;;;19.93;31.76;102438.56;16122303;19;130970;-42
2023/04/17 15:49:11;;;;;;;10.88;6.40;;;;;;;19.89;32.22;102437.28;16124742;19;129601;-41
2023/04/17 15:54:32;;;;;;;10.07;6.82;;;;;;;19.88;32.01;102432.81;16120280;19;131070;-44
2023/04/17 15:59:54;;;;;;;12.88;5.70;;;;;;;19.85;32.14;102436.00;16115915;19;131810;-44
2023/04/17 16:05:17;;;;;;;11.25;5.82;;;;;;;19.83;31.68;102432.59;16120766;19;129638;-43
2023/04/17 16:10:39;;;;;;;11.60;6.05;;;;;;;19.81;31.96;102445.88;16120132;19;130564;-42
2023/04/17 16:16:02;;;;;;;9.23;6.13;;;;;;;19.80;31.79;102439.44;16121549;19;130926;-45
2023/04/17 16:21:25;;;;;;;8.32;5.57;;;;;;;19.83;32.22;102432.59;16119066;19;131481;-44
2023/04/17 16:26:52;;;;;;;9.40;5.43;;;;;;;19.84;32.14;102429.63;16117876;19;129448;-42
2023/04/17 16:32:14;;;;;;;11.82;5.53;;;;;;;19.79;31.92;102423.00;16119142;19;130448;-42
2023/04/17 16:37:36;;;;;;;13.88;6.22;;;;;;;19.76;32.04;102418.72;16115033;19;130837;-41
2023/04/17 16:42:58;;;;;;;11.65;6.63;;;;;;;19.82;31.62;102430.88;16116110;19;131029;-42
2023/04/17 16:48:20;;;;;;;19.35;7.45;;;;;;;19.92;30.87;102436.84;16118934;19;131959;-44
2023/04/17 16:53:43;;;;;;;12.85;6.28;;;;;;;20.03;30.63;102428.94;16117157;19;131501;-42
2023/04/17 16:59:05;;;;;;;14.82;7.10;;;;;;;20.07;30.94;102422.72;16110321;19;130875;-43
2023/04/17 17:04:27;;;;;;;23.90;7.78;;;;;;;20.12;30.70;102424.84;16116918;19;131074;-42
2023/04/17 17:09:49;;;;;;;20.55;6.88;;;;;;;20.17;30.71;102427.81;16108859;19;129352;-41
2023/04/17 17:15:10;;;;;;;19.42;5.32;;;;;;;20.19;31.39;102431.22;16117073;19;129545;-42
2023/04/17 17:20:33;;;;;;;17.20;5.88;;;;;;;20.28;31.15;102423.47;16117047;19;129826;-42
2023/04/17 17:25:54;;;;;;;17.35;4.43;;;;;;;20.39;31.22;102421.94;16117689;19;132807;-40
2023/04/17 17:31:16;;;;;;;12.23;4.38;;;;;;;20.49;31.45;102425.09;16119404;19;129558;-41
2023/04/17 17:36:39;;;;;;;12.18;3.97;;;;;;;20.58;31.00;102423.75;16116770;19;129849;-40
2023/04/17 17:42:04;;;;;;;16.20;4.07;;;;;;;20.68;31.30;102426.03;16115658;19;129946;-43
2023/04/17 17:47:25;;;;;;;13.33;3.73;;;;;;;20.75;31.63;102428.78;16114228;19;132371;-44
2023/04/17 17:52:47;;;;;;;11.77;3.22;;;;;;;20.81;31.63;102432.63;16113782;19;130479;-44
2023/04/17 17:58:09;;;;;;;9.25;3.50;;;;;;;20.86;31.82;102441.16;16113361;19;131670;-42
2023/04/17 18:03:32;;;;;;;5.28;2.78;;;;;;;20.91;31.89;102441.31;16111879;19;129637;-41
2023/04/17 18:08:59;;;;;;;14.75;3.30;;;;;;;20.94;31.75;102438.09;16112533;19;130509;-42
2023/04/17 18:14:21;;;;;;;9.30;2.80;;;;;;;20.97;32.07;102440.44;16113400;19;130903;-41
2023/04/17 18:19:43;;;;;;;10.55;3.15;;;;;;;21.00;32.08;102441.91;16116627;19;130676;-42
2023/04/17 18:25:06;;;;;;;10.70;3.13;;;;;;;21.00;32.22;102444.69;16119626;19;133183;-40
2023/04/17 18:30:28;;;;;;;9.15;2.95;;;;;;;21.01;32.27;102449.19;16113860;19;130429;-41
2023/04/17 18:35:50;;;;;;;9.52;3.42;;;;;;;21.02;31.86;102453.66;16117285;19;130825;-42
2023/04/17 18:41:12;;;;;;;24.15;3.90;;;;;;;21.04;32.11;102454.28;16115151;19;130802;-42
2023/04/17 18:46:33;;;;;;;11.30;2.80;;;;;;;21.07;32.35;102459.38;16128121;19;129697;-41
2023/04/17 18:51:55;;;;;;;7.15;2.67;;;;;;;21.10;32.22;102456.16;16128412;19;130531;-43
2023/04/17 18:57:17;;;;;;;10.82;2.70;;;;;;;21.11;32.63;102455.09;16127265;19;129602;-40
2023/04/17 19:02:39;;;;;;;9.13;2.70;;;;;;;21.07;32.34;102464.94;16127417;19;129988;-41
2023/04/17 19:08:01;;;;;;;10.45;2.47;;;;;;;20.97;32.79;102453.47;16120059;19;131127;-40
2023/04/17 19:13:23;;;;;;;12.30;2.47;;;;;;;20.89;32.96;102460.16;16128760;19;130575;-43
2023/04/17 19:18:45;;;;;;;6.93;2.38;;;;;;;20.80;32.97;102458.72;16127528;19;129218;-40
2023/04/17 19:24:07;;;;;;;4.78;1.90;;;;;;;20.72;33.37;102468.16;16122700;19;129263;-40
2023/04/17 19:29:29;;;;;;;8.25;2.35;;;;;;;20.65;33.47;102464.56;16125252;19;129908;-41
2023/04/17 19:34:51;;;;;;;10.48;2.03;;;;;;;20.58;33.51;102479.34;16110581;19;130333;-40
2023/04/17 19:40:15;;;;;;;5.72;1.80;;;;;;;20.51;33.43;102483.22;16111070;19;129562;-41
2023/04/17 19:45:45;;;;;;;24.23;3.05;;;;;;;20.44;33.73;102477.72;16112115;19;130397;-39
2023/04/17 19:51:08;;;;;;;16.98;3.15;;;;;;;20.39;33.37;102480.31;16119690;19;130494;-39
2023/04/17 19:56:29;;;;;;;8.93;2.60;;;;;;;20.33;33.56;102475.63;16116542;19;130890;-40
2023/04/17 20:01:52;;;;;;;10.82;2.30;;;;;;;20.24;33.59;102478.66;16120760;19;129706;-41
2023/04/17 20:07:15;;;;;;;7.15;2.40;;;;;;;20.17;33.60;102483.41;16124163;19;130706;-40
2023/04/17 20:12:36;;;;;;;5.65;2.28;;;;;;;20.14;33.66;102489.38;16119877;19;129426;-39
2023/04/17 20:17:58;;;;;;;7.72;2.38;;;;;;;20.14;33.38;102493.00;16122080;19;131407;-40
2023/04/17 20:23:21;;;;;;;5.15;2.40;;;;;;;20.25;32.88;102488.69;16125210;19;131491;-41
2023/04/17 20:28:42;;;;;;;5.75;2.53;;;;;;;20.40;32.73;102487.59;16119865;19;130629;-39
2023/04/17 20:34:04;;;;;;;4.95;2.90;;;;;;;20.54;32.91;102482.81;16119936;19;133843;-39
2023/04/17 20:39:27;;;;;;;4.80;2.75;;;;;;;20.63;32.37;102486.19;16121638;19;129938;-38
2023/04/17 20:44:49;;;;;;;4.93;2.60;;;;;;;20.63;32.28;102487.03;16122602;19;130682;-39
2023/04/17 20:50:12;;;;;;;5.13;3.17;;;;;;;20.62;32.23;102484.47;16116646;19;129966;-39
2023/04/17 20:55:36;;;;;;;5.82;2.58;;;;;;;20.56;32.50;102481.50;16121109;19;131002;-39
2023/04/17 21:00:57;;;;;;;5.00;3.05;;;;;;;20.50;32.44;102473.19;16119018;19;130475;-41
2023/04/17 21:06:23;;;;;;;4.53;2.90;;;;;;;20.43;32.89;102478.81;16116795;19;130403;-39
2023/04/17 21:11:46;;;;;;;6.28;3.60;;;;;;;20.37;33.02;102476.91;16117789;19;130384;-40
2023/04/17 21:17:08;;;;;;;4.18;3.10;;;;;;;20.29;32.83;102475.22;16116237;19;130505;-39
2023/04/17 21:22:30;;;;;;;5.50;3.75;;;;;;;20.24;32.70;102473.09;16118422;19;131189;-41
2023/04/17 21:27:52;;;;;;;5.70;3.80;;;;;;;20.17;33.09;102465.84;16113933;19;130792;-40
2023/04/17 21:33:13;;;;;;;5.65;3.50;;;;;;;20.09;33.17;102461.38;16118088;19;130899;-40
2023/04/17 21:38:35;;;;;;;4.55;3.78;;;;;;;20.03;33.08;102465.06;16116549;19;130486;-40
2023/04/17 21:44:01;;;;;;;7.25;4.03;;;;;;;19.97;32.93;102475.94;16115416;19;129677;-39
2023/04/17 21:49:23;;;;;;;5.47;3.83;;;;;;;19.91;32.98;102479.59;16114095;19;129177;-40
2023/04/17 21:54:45;;;;;;;4.68;3.90;;;;;;;19.84;32.95;102479.59;16112291;19;131212;-40
2023/04/17 22:00:11;;;;;;;4.82;3.90;;;;;;;19.78;33.21;102480.44;16114539;19;129973;-40
2023/04/17 22:05:33;;;;;;;4.78;3.90;;;;;;;19.75;33.32;102486.47;16112676;19;129590;-39
2023/04/17 22:10:55;;;;;;;4.65;3.80;;;;;;;19.71;33.54;102478.75;16111129;19;129743;-39
2023/04/17 22:16:16;;;;;;;3.97;3.35;;;;;;;19.65;33.72;102486.91;16110373;19;132062;-39
2023/04/17 22:21:39;;;;;;;4.78;3.30;;;;;;;19.61;33.26;102474.50;16111510;19;129612;-39
2023/04/17 22:27:01;;;;;;;3.70;3.30;;;;;;;19.59;33.34;102479.41;16113275;19;130232;-39
2023/04/17 22:32:22;;;;;;;4.85;3.70;;;;;;;19.56;33.57;102477.09;16113006;19;130088;-38
2023/04/17 22:37:44;;;;;;;5.55;3.00;;;;;;;19.52;33.49;102475.81;16113690;19;134270;-39
2023/04/17 22:43:06;;;;;;;5.07;3.40;;;;;;;19.48;33.40;102477.28;16111619;19;129554;-39
2023/04/17 22:48:28;;;;;;;3.72;3.17;;;;;;;19.46;33.61;102473.88;16110730;19;131073;-39
2023/04/17 22:53:50;;;;;;;3.83;3.47;;;;;;;19.44;33.82;102478.81;16111911;19;129404;-39
2023/04/17 22:59:11;;;;;;;4.60;3.38;;;;;;;19.39;33.71;102465.53;16113553;19;132040;-39
2023/04/17 23:04:33;;;;;;;3.50;3.20;;;;;;;19.37;33.50;102471.31;16111053;19;131786;-39
2023/04/17 23:09:55;;;;;;;3.08;2.78;;;;;;;19.34;33.96;102477.28;16111600;19;130296;-40
2023/04/17 23:15:17;;;;;;;3.20;2.85;;;;;;;19.32;33.70;102473.88;16111706;19;129576;-40
2023/04/17 23:20:39;;;;;;;5.85;3.55;;;;;;;19.30;33.94;102476.03;16110092;19;129806;-44
2023/04/17 23:26:01;;;;;;;4.13;3.50;;;;;;;19.29;33.94;102468.78;16112310;19;130942;-39
2023/04/17 23:31:23;;;;;;;6.10;3.88;;;;;;;19.26;34.04;102474.72;16114063;19;130169;-39
2023/04/17 23:36:46;;;;;;;6.50;3.28;;;;;;;19.22;34.03;102479.88;16124856;19;130450;-40
2023/04/17 23:42:08;;;;;;;3.88;3.13;;;;;;;19.21;33.57;102477.28;16125514;19;129450;-42
2023/04/17 23:47:30;;;;;;;3.70;3.00;;;;;;;19.19;33.66;102471.91;16121271;19;131661;-39
2023/04/17 23:52:53;;;;;;;3.22;2.60;;;;;;;19.16;33.64;102471.50;16120990;19;129269;-40
2023/04/17 23:58:15;;;;;;;4.88;3.60;;;;;;;19.14;34.07;102468.91;16122465;19;130915;-39
